Soaring Guidance
Issued by NWS Reno, NV

Current Version | Previous Version | Text Only | Print | Product List | Glossary On
Versions: 1 2 3 4 5 6 7 8 9 10 11 12 13
000
UXUS97 KREV 131334
SRGREV

SOARING FORECAST
NATIONAL WEATHER SERVICE - RENO NV
700 AM PDT SUN OCT 13 2019

THIS SOARING FORECAST IS FOR THE EASTERN SIERRA AND WESTERN NEVADA
WITH SPECIFIC INDICES FOR THE GREATER RENO AREA.

THIS FORECAST IS PREPARED DAILY BY 700 AM AND IS NOT UPDATED.

FOR CURRENT FLIGHT CONDITIONS...FORECASTS...AND ADVISORIES...ACCESS
YOUR LOCAL BRIEFING OUTLET OR FLIGHT SERVICE STATION.

*******************************************************************
FORECASTED LOCAL INDICES FOR RENO:        TODAY     YESTERDAY
FORECASTED MAX TEMP AT RENO (DEG F).....     73          72
FORECASTED TRIGGER TEMPERATURE (DEG F)..     65          67
   EXCEEDED YESTERDAY BY 1455 PM PDT
FORECASTED MAXIMUM ALTITUDE (FT MSL)....  14000       11000
FORECASTED SOARING INDEX (FPM)..........    810         510
FORECASTED K-INDEX.........VALID 18Z....     -8          -7
FORECASTED K-INDEX.........VALID 00Z....      3           6
FORECASTED LIFTED INDEX....VALID 18Z....      7          11
FORECASTED LIFTED INDEX....VALID 00Z....      4           7

AFTERNOON WINDS ALOFT FORECAST
MSL (FT) WIND/TEMP
9000  2808/+06
10000 2508/+03
12000 2408/-02
14000 2310/-07
16000 2313/-12
18000 2320/-18
24000 2426/-28
30000 2331/-44
34000 2426/-51
39000 2628/-55

SLIDE MOUNTAIN DATA:
     DATE       TIME     TEMP  DEWPT   RH         WIND (MPH)
                        (F)   (F)           | DIR  SPEED GUST
2019-10-13    05:50      35    11     22    | 269   18   23
2019-10-13    05:30      36     9     19    | 270   18   22
2019-10-13    05:20      36     7     16    | 269   20   25
2019-10-13    05:00      36     7     16    | 270   17   23

SIERRA CREST 8700 FT DATA:
   DATE     TIME  TEMP  RH         WIND
                            DIR   SPEED   GUST

RENO TAF FORECAST:
KRNO 131125Z 1312/1412 VRB03KT P6SM FEW120 SCT200
     FM132000 26008KT P6SM SCT120 SCT200
     FM140200 VRB03KT P6SM SKC

CARSON CITY TAF FORECAST:
KCXP 131125Z 1312/1412 VRB03KT P6SM FEW040 FEW120 SCT200
     FM131900 22007KT P6SM SCT120 SCT200
     FM140200 VRB03KT P6SM SKC

OUTLOOK FOR THE RENO-CARSON CITY-MINDEN AREA:
.COLUMBUS DAY...SUNNY. HIGHS 66 TO 71. LIGHT WINDS.

SUNRISE AND SUNSET
OCTOBER 13 2019.......SUNRISE   707 AM PDT   SUNSET   623 PM PDT
OCTOBER 14 2019.......SUNRISE   708 AM PDT   SUNSET   622 PM PDT


USA.gov is the U.S. government's official web portal to all federal, state and local government web resources and services.